Aérodrome :
LOGIN :

S'inscrire | Disclaimer

   EN    FR    IT 

 










Légende :    VFR   VFR Marginal   IFR   IFR Intensif   IFR Très Intensif
Visi : 
Plafond : 
>= 8 km
>= 3000ft
5 à 8 km
1000 à 3000 ft
1500m à 5 km
500 à 1000 ft
800 à 1500m
200 à 500 ft
< 800m
< 200 ft
Symboles :   Orages  Brouillard  Fortes neiges  Fortes précipitations  Vent > 20 kt
SIGMETs :   Divers  Orages  Givrage  Turbulence  Onde Orograph.  Cendres Volcan.






- Altitude de l'aérodrome : 768 ft
- Code IATA : MXP


LIMC - Milano Malpensa

DERNIER METAR :
  • 032050Z 01004KT CAVOK 05/01 Q1028 NOSIG

METARs EXPIRÉS :
  • 032020Z 03004KT CAVOK 06/01 Q1028 NOSIG
  • 031950Z 01003KT CAVOK 06/01 Q1028 NOSIG
  • 031920Z 02003KT CAVOK 07/02 Q1028 NOSIG
  • 031850Z 02005KT CAVOK 07/02 Q1028 NOSIG
  • 031820Z 02003KT CAVOK 08/02 Q1028 NOSIG

TAF TAF LIMC
Valide du 03 à 18h jusqu'au 05 à 00h UTC


031700Z 0318/0424 VRB05KT CAVOK
TEMPO 0323/0406 3000 BR



MET'MAP, la Météo Aéronautique d'un coup d'oeil ! - Copyright ORBIFLY Décembre 2007 - Disclaimer

ORBIFLY MET'MAP TEAM :

Programmation & Développement : Alexandra Zaïnal
Sur une idée originale de : Baudouin d'Aumeries
Assistance à la programmation : Marc-Olivier Méhu
Soutien technique & logistique : Manuel Goepfert

Contact : metmap@orbifly.com




SOURCES & CREDITS :

   NOAA